Time;durP1;ratioP1;P1;durP2;ratioP2;P2;SDS_P1;SDS_P2;PMS_P1;PMS_P2;Temp;Humidity;BMP_temperature;BMP_pressure;BME280_temperature;BME280_humidity;BME280_pressure;Samples;Min_cycle;Max_cycle;Signal;HPM_P1;HPM_P2
2022/10/30 00:01:09;;;;;;;7.15;4.50;;;;;;;;;;5113653;28;20291;-85
2022/10/30 00:03:38;;;;;;;4.15;3.50;;;;;;;;;;5116318;28;20230;-84
2022/10/30 00:06:07;;;;;;;4.55;3.70;;;;;;;;;;5118089;28;20203;-86
2022/10/30 00:08:34;;;;;;;3.88;3.47;;;;;;;;;;5117122;28;20215;-85
2022/10/30 00:11:07;;;;;;;4.47;4.07;;;;;;;;;;5117319;28;20209;-85
2022/10/30 00:13:36;;;;;;;10.93;5.10;;;;;;;;;;5117904;28;20195;-85
2022/10/30 00:16:07;;;;;;;6.32;3.92;;;;;;;;;;5118374;28;20291;-85
2022/10/30 00:18:38;;;;;;;4.03;3.28;;;;;;;;;;5117360;28;20253;-85
2022/10/30 00:21:08;;;;;;;8.95;6.22;;;;;;;;;;5117559;28;20195;-85
2022/10/30 00:23:36;;;;;;;7.80;4.93;;;;;;;;;;5117191;28;20234;-85
2022/10/30 00:26:05;;;;;;;5.00;3.72;;;;;;;;;;5117298;28;20292;-84
2022/10/30 00:28:32;;;;;;;7.03;4.55;;;;;;;;;;5116784;28;20215;-84
2022/10/30 00:31:10;;;;;;;5.65;4.05;;;;;;;;;;5116960;28;20710;-83
2022/10/30 00:33:37;;;;;;;4.88;4.18;;;;;;;;;;5117316;28;20617;-84
2022/10/30 00:36:10;;;;;;;7.00;4.63;;;;;;;;;;5116890;28;20238;-84
2022/10/30 00:38:40;;;;;;;4.55;3.95;;;;;;;;;;5117175;28;20224;-85
2022/10/30 00:41:12;;;;;;;5.03;3.75;;;;;;;;;;5117733;28;20191;-85
2022/10/30 00:43:40;;;;;;;2.92;2.72;;;;;;;;;;5117015;28;20314;-84
2022/10/30 00:46:19;;;;;;;3.03;2.53;;;;;;;;;;5117061;28;20204;-85
2022/10/30 00:48:50;;;;;;;2.80;2.53;;;;;;;;;;5116891;28;20199;-85
2022/10/30 00:51:18;;;;;;;2.42;2.15;;;;;;;;;;5116845;28;20290;-84
2022/10/30 00:53:47;;;;;;;3.40;2.45;;;;;;;;;;5116725;28;20234;-85
2022/10/30 00:56:17;;;;;;;3.38;2.70;;;;;;;;;;5116471;28;20196;-85
2022/10/30 00:58:51;;;;;;;3.97;3.63;;;;;;;;;;5117150;28;20222;-85
2022/10/30 01:01:24;;;;;;;3.55;3.10;;;;;;;;;;5117211;28;20199;-85
2022/10/30 01:03:55;;;;;;;4.07;3.13;;;;;;;;;;5116461;28;20219;-85
2022/10/30 01:06:23;;;;;;;3.05;2.75;;;;;;;;;;5116414;28;20210;-85
2022/10/30 01:08:51;;;;;;;3.33;2.90;;;;;;;;;;5116352;28;20250;-87
2022/10/30 01:11:19;;;;;;;5.18;3.38;;;;;;;;;;5116305;28;20199;-87
2022/10/30 01:13:50;;;;;;;2.55;2.35;;;;;;;;;;5115643;28;20234;-86
2022/10/30 01:16:41;;;;;;;5.10;3.60;;;;;;;;;;5116216;28;20200;-86
2022/10/30 01:19:18;;;;;;;3.03;2.72;;;;;;;;;;5116095;28;20203;-85
2022/10/30 01:21:58;;;;;;;3.60;2.60;;;;;;;;;;5116429;28;20643;-85
2022/10/30 01:24:46;;;;;;;3.58;2.30;;;;;;;;;;5117013;28;20216;-86
2022/10/30 01:27:32;;;;;;;3.08;2.78;;;;;;;;;;5116971;28;20219;-85
2022/10/30 01:30:13;;;;;;;3.97;3.08;;;;;;;;;;5116341;28;20203;-85
2022/10/30 01:33:06;;;;;;;3.17;2.80;;;;;;;;;;5117207;28;20694;-85
2022/10/30 01:35:40;;;;;;;3.47;2.55;;;;;;;;;;5116679;28;20199;-85
2022/10/30 01:38:12;;;;;;;3.78;2.30;;;;;;;;;;5116314;28;20226;-85
2022/10/30 01:40:44;;;;;;;4.13;3.15;;;;;;;;;;5116745;28;20260;-85
2022/10/30 01:43:12;;;;;;;2.85;2.58;;;;;;;;;;5116848;28;20284;-86
2022/10/30 01:46:05;;;;;;;3.13;2.80;;;;;;;;;;5116563;28;20726;-85
2022/10/30 01:49:07;;;;;;;2.90;2.70;;;;;;;;;;5116294;28;20682;-85
2022/10/30 01:51:44;;;;;;;4.75;3.63;;;;;;;;;;5116269;28;20205;-86
2022/10/30 01:54:23;;;;;;;5.05;3.30;;;;;;;;;;5116216;28;20203;-86
2022/10/30 01:57:02;;;;;;;6.55;3.90;;;;;;;;;;5116154;28;20600;-86
2022/10/30 01:59:34;;;;;;;4.85;4.20;;;;;;;;;;5116223;28;20223;-86
2022/10/30 02:02:02;;;;;;;5.55;4.28;;;;;;;;;;5116417;28;20188;-86
2022/10/30 02:04:35;;;;;;;2.55;2.35;;;;;;;;;;5115966;28;20260;-86
2022/10/30 02:07:03;;;;;;;6.07;3.80;;;;;;;;;;5116446;28;20223;-85
2022/10/30 02:09:32;;;;;;;4.22;3.38;;;;;;;;;;5116332;28;20712;-84
2022/10/30 02:12:00;;;;;;;6.30;3.50;;;;;;;;;;5116298;28;20207;-84
2022/10/30 02:14:31;;;;;;;9.77;3.55;;;;;;;;;;5116005;28;20230;-86
2022/10/30 02:17:03;;;;;;;6.32;3.42;;;;;;;;;;5115979;28;20257;-86
2022/10/30 02:19:31;;;;;;;6.38;3.47;;;;;;;;;;5115321;28;20196;-85
2022/10/30 02:22:00;;;;;;;7.40;4.05;;;;;;;;;;5116152;28;20644;-84
2022/10/30 02:24:29;;;;;;;4.13;3.13;;;;;;;;;;5115587;28;20314;-85
2022/10/30 02:26:56;;;;;;;4.55;3.20;;;;;;;;;;5116039;28;20708;-83
2022/10/30 02:29:24;;;;;;;2.55;2.28;;;;;;;;;;5115549;28;20195;-86
2022/10/30 02:31:51;;;;;;;3.55;2.60;;;;;;;;;;5115840;28;20676;-85
2022/10/30 02:34:19;;;;;;;2.88;2.47;;;;;;;;;;5117172;28;20639;-85
2022/10/30 02:36:46;;;;;;;5.60;2.55;;;;;;;;;;5117756;28;20310;-85
2022/10/30 02:39:18;;;;;;;4.68;2.40;;;;;;;;;;5117837;28;20199;-84
2022/10/30 02:41:46;;;;;;;9.10;3.38;;;;;;;;;;5117745;28;20725;-86
2022/10/30 02:44:14;;;;;;;2.80;2.33;;;;;;;;;;5117066;28;20259;-85
2022/10/30 02:46:41;;;;;;;7.47;3.28;;;;;;;;;;5117487;28;20259;-84
2022/10/30 02:49:09;;;;;;;4.60;3.53;;;;;;;;;;5117845;28;20673;-82
2022/10/30 02:51:36;;;;;;;5.03;2.85;;;;;;;;;;5117593;28;20287;-82
2022/10/30 02:54:04;;;;;;;4.50;3.55;;;;;;;;;;5117043;28;20736;-81
2022/10/30 02:56:32;;;;;;;2.80;2.40;;;;;;;;;;5117416;28;20674;-84
2022/10/30 02:59:00;;;;;;;2.63;2.42;;;;;;;;;;5116439;28;20308;-83
2022/10/30 03:01:27;;;;;;;3.83;2.40;;;;;;;;;;5116852;28;20199;-83
2022/10/30 03:03:55;;;;;;;3.03;2.30;;;;;;;;;;5116861;28;20279;-83
2022/10/30 03:06:22;;;;;;;4.85;3.15;;;;;;;;;;5115922;28;20315;-83
2022/10/30 03:08:50;;;;;;;4.25;2.47;;;;;;;;;;5116362;28;20290;-83
2022/10/30 03:11:19;;;;;;;5.07;3.47;;;;;;;;;;5116356;28;20201;-84
2022/10/30 03:13:49;;;;;;;4.25;2.97;;;;;;;;;;5117073;28;20206;-82
2022/10/30 03:16:19;;;;;;;4.30;3.10;;;;;;;;;;5116601;28;20206;-83
2022/10/30 03:18:47;;;;;;;4.82;3.30;;;;;;;;;;5116262;28;20203;-84
2022/10/30 03:21:17;;;;;;;4.57;2.60;;;;;;;;;;5115530;28;20210;-83
2022/10/30 03:23:45;;;;;;;4.00;3.47;;;;;;;;;;5116310;28;20227;-84
2022/10/30 03:26:13;;;;;;;3.75;2.10;;;;;;;;;;5116965;28;20278;-83
2022/10/30 03:28:40;;;;;;;8.80;3.03;;;;;;;;;;5116022;28;20732;-82
2022/10/30 03:31:11;;;;;;;3.25;2.15;;;;;;;;;;5115430;28;20286;-82
2022/10/30 03:33:39;;;;;;;3.08;2.42;;;;;;;;;;5117297;28;20200;-81
2022/10/30 03:36:09;;;;;;;6.20;3.00;;;;;;;;;;5116341;28;20564;-82
2022/10/30 03:38:36;;;;;;;3.20;2.85;;;;;;;;;;5119187;28;20302;-82
2022/10/30 03:41:04;;;;;;;8.57;3.33;;;;;;;;;;5120824;28;20199;-82
2022/10/30 03:43:32;;;;;;;3.80;3.25;;;;;;;;;;5120815;28;20201;-82
2022/10/30 03:46:00;;;;;;;6.47;2.67;;;;;;;;;;5120696;28;20231;-82
2022/10/30 03:48:30;;;;;;;3.90;3.00;;;;;;;;;;5120847;28;20784;-82
2022/10/30 03:50:59;;;;;;;4.03;3.35;;;;;;;;;;5121142;28;20226;-82
2022/10/30 03:53:27;;;;;;;2.35;2.00;;;;;;;;;;5120739;28;20666;-81
2022/10/30 03:55:59;;;;;;;2.70;2.45;;;;;;;;;;5120292;28;20191;-82
2022/10/30 03:58:26;;;;;;;4.47;3.08;;;;;;;;;;5120183;28;20223;-82
2022/10/30 04:00:54;;;;;;;2.60;2.40;;;;;;;;;;5121027;28;20232;-82
2022/10/30 04:03:22;;;;;;;3.35;2.72;;;;;;;;;;5120561;28;20283;-82
2022/10/30 04:05:53;;;;;;;5.53;3.35;;;;;;;;;;5119786;28;20215;-84
2022/10/30 04:08:21;;;;;;;4.10;3.50;;;;;;;;;;5119488;28;20220;-83
2022/10/30 04:10:49;;;;;;;3.03;2.00;;;;;;;;;;5119860;28;20238;-84
2022/10/30 04:13:19;;;;;;;3.58;2.45;;;;;;;;;;5119443;28;20231;-84
2022/10/30 04:15:49;;;;;;;3.25;2.95;;;;;;;;;;5119691;28;20235;-83
2022/10/30 04:18:17;;;;;;;2.40;2.20;;;;;;;;;;5119150;28;20226;-83
2022/10/30 04:20:45;;;;;;;3.05;2.75;;;;;;;;;;5119738;28;20294;-83
2022/10/30 04:23:17;;;;;;;3.65;3.33;;;;;;;;;;5119056;28;20238;-83
2022/10/30 04:25:44;;;;;;;4.40;2.58;;;;;;;;;;5119546;28;20226;-82
2022/10/30 04:28:12;;;;;;;3.00;2.67;;;;;;;;;;5118380;28;20251;-83
2022/10/30 04:30:40;;;;;;;2.15;2.05;;;;;;;;;;5119136;28;20763;-83
2022/10/30 04:33:10;;;;;;;5.43;3.60;;;;;;;;;;5119019;28;20291;-83
2022/10/30 04:35:38;;;;;;;5.03;3.28;;;;;;;;;;5119213;28;20196;-83
2022/10/30 04:38:09;;;;;;;4.68;3.58;;;;;;;;;;5118794;28;20745;-82
2022/10/30 04:40:39;;;;;;;4.28;3.08;;;;;;;;;;5119458;28;20203;-83
2022/10/30 04:43:08;;;;;;;3.70;2.80;;;;;;;;;;5119149;28;20267;-82
2022/10/30 04:45:36;;;;;;;3.03;2.83;;;;;;;;;;5118667;28;20216;-81
2022/10/30 04:48:06;;;;;;;5.03;2.92;;;;;;;;;;5117570;28;20232;-83
2022/10/30 04:50:36;;;;;;;4.82;2.65;;;;;;;;;;5119226;28;20238;-84
2022/10/30 04:53:06;;;;;;;6.57;2.67;;;;;;;;;;5119001;28;20199;-82
2022/10/30 04:55:34;;;;;;;4.18;2.85;;;;;;;;;;5119373;28;20227;-83
2022/10/30 04:58:03;;;;;;;6.82;3.13;;;;;;;;;;5118674;28;20243;-81
2022/10/30 05:00:32;;;;;;;4.43;3.35;;;;;;;;;;5118992;28;20283;-83
2022/10/30 05:03:00;;;;;;;5.07;3.47;;;;;;;;;;5118790;28;20696;-82
2022/10/30 05:05:28;;;;;;;3.55;3.08;;;;;;;;;;5118661;28;20226;-82
2022/10/30 05:07:55;;;;;;;2.70;2.40;;;;;;;;;;5118885;28;20306;-82
2022/10/30 05:10:23;;;;;;;4.75;3.55;;;;;;;;;;5119000;28;20196;-82
2022/10/30 05:12:53;;;;;;;3.58;2.40;;;;;;;;;;5118770;28;20321;-82
2022/10/30 05:15:22;;;;;;;7.40;2.95;;;;;;;;;;5118793;28;20195;-82
2022/10/30 05:17:52;;;;;;;3.30;2.20;;;;;;;;;;5117999;28;20287;-82
2022/10/30 05:20:20;;;;;;;2.75;2.33;;;;;;;;;;5118352;28;20696;-81
2022/10/30 05:22:55;;;;;;;5.63;3.22;;;;;;;;;;5117394;28;20277;-82
2022/10/30 05:25:22;;;;;;;4.13;3.45;;;;;;;;;;5117115;28;20202;-83
2022/10/30 05:27:49;;;;;;;7.18;3.90;;;;;;;;;;5117954;28;20728;-84
2022/10/30 05:30:17;;;;;;;5.90;4.72;;;;;;;;;;5117315;28;20283;-83
2022/10/30 05:32:46;;;;;;;6.35;3.65;;;;;;;;;;5117043;28;20267;-82
2022/10/30 05:35:13;;;;;;;4.20;3.05;;;;;;;;;;5117451;28;20695;-81
2022/10/30 05:37:41;;;;;;;5.95;3.33;;;;;;;;;;5117066;28;20762;-80
2022/10/30 05:40:10;;;;;;;3.35;2.78;;;;;;;;;;5116710;28;20263;-84
2022/10/30 05:42:37;;;;;;;2.70;2.42;;;;;;;;;;5116304;28;20206;-84
2022/10/30 05:45:06;;;;;;;4.45;4.03;;;;;;;;;;5116627;28;20271;-82
2022/10/30 05:47:33;;;;;;;5.18;3.63;;;;;;;;;;5116787;28;20224;-83
2022/10/30 05:50:02;;;;;;;3.80;3.33;;;;;;;;;;5116148;28;20286;-83
2022/10/30 05:52:32;;;;;;;4.30;3.08;;;;;;;;;;5116757;28;20739;-83
2022/10/30 05:54:59;;;;;;;4.28;3.63;;;;;;;;;;5100021;28;20231;-82
2022/10/30 05:57:28;;;;;;;4.05;3.65;;;;;;;;;;5096439;28;20303;-83
2022/10/30 06:00:10;;;;;;;2.72;2.30;;;;;;;;;;5095868;28;20576;-83
2022/10/30 06:02:40;;;;;;;5.25;2.72;;;;;;;;;;5096390;28;20290;-82
2022/10/30 06:05:11;;;;;;;3.63;2.83;;;;;;;;;;5096390;28;20593;-82
2022/10/30 06:07:39;;;;;;;6.38;2.42;;;;;;;;;;5096555;28;20681;-83
2022/10/30 06:10:07;;;;;;;7.75;5.00;;;;;;;;;;5096022;28;20207;-83
2022/10/30 06:12:34;;;;;;;5.07;4.05;;;;;;;;;;5096279;28;20204;-82
2022/10/30 06:15:02;;;;;;;5.97;4.30;;;;;;;;;;5096803;28;20272;-82
2022/10/30 06:17:31;;;;;;;5.15;4.28;;;;;;;;;;5095886;28;20311;-82
2022/10/30 06:19:58;;;;;;;5.10;4.10;;;;;;;;;;5096127;28;20286;-81
2022/10/30 06:22:27;;;;;;;3.97;3.53;;;;;;;;;;5096257;28;20402;-82
2022/10/30 06:24:54;;;;;;;5.85;4.25;;;;;;;;;;5112783;28;20200;-81
2022/10/30 06:27:22;;;;;;;4.28;3.50;;;;;;;;;;5117119;28;20310;-81
2022/10/30 06:29:49;;;;;;;4.78;3.63;;;;;;;;;;5116671;28;20311;-81
2022/10/30 06:32:17;;;;;;;6.22;4.28;;;;;;;;;;5116713;28;20571;-81
2022/10/30 06:34:45;;;;;;;4.75;4.07;;;;;;;;;;5116782;28;20704;-82
2022/10/30 06:37:12;;;;;;;10.40;4.95;;;;;;;;;;5116922;28;20646;-81
2022/10/30 06:39:41;;;;;;;6.05;3.67;;;;;;;;;;5116709;28;20200;-84
2022/10/30 06:42:09;;;;;;;6.13;4.05;;;;;;;;;;5117478;28;20199;-84
2022/10/30 06:44:36;;;;;;;4.35;3.22;;;;;;;;;;5116637;28;20691;-82
2022/10/30 06:47:04;;;;;;;4.15;3.40;;;;;;;;;;5116060;28;20771;-82
2022/10/30 06:49:31;;;;;;;4.07;3.20;;;;;;;;;;5115074;28;20199;-83
2022/10/30 06:51:58;;;;;;;5.78;3.55;;;;;;;;;;5115952;28;20615;-82
2022/10/30 06:54:26;;;;;;;7.72;4.47;;;;;;;;;;5115645;28;20235;-83
2022/10/30 06:56:55;;;;;;;4.28;3.92;;;;;;;;;;5115699;28;20306;-83
2022/10/30 06:59:22;;;;;;;6.80;3.40;;;;;;;;;;5115808;28;20686;-83
2022/10/30 07:01:50;;;;;;;4.45;4.05;;;;;;;;;;5116049;28;20260;-83
2022/10/30 07:04:17;;;;;;;4.82;3.92;;;;;;;;;;5116609;28;20290;-83
2022/10/30 07:06:45;;;;;;;2.85;2.63;;;;;;;;;;5115509;28;20664;-82
2022/10/30 07:09:12;;;;;;;4.80;3.22;;;;;;;;;;5115930;28;20199;-82
2022/10/30 07:11:44;;;;;;;2.58;2.30;;;;;;;;;;5115497;28;20263;-81
2022/10/30 07:14:13;;;;;;;2.53;1.75;;;;;;;;;;5116604;28;20230;-82
2022/10/30 07:16:40;;;;;;;2.92;2.55;;;;;;;;;;5116556;28;20310;-82
2022/10/30 07:19:08;;;;;;;2.97;2.65;;;;;;;;;;5116286;28;20651;-81
2022/10/30 07:21:35;;;;;;;3.25;2.78;;;;;;;;;;5115899;28;20711;-81
2022/10/30 07:24:03;;;;;;;3.10;2.42;;;;;;;;;;5115668;28;20207;-81
2022/10/30 07:26:32;;;;;;;8.40;4.13;;;;;;;;;;5116244;28;20199;-82
2022/10/30 07:28:59;;;;;;;4.50;4.10;;;;;;;;;;5115926;28;20222;-81
2022/10/30 07:31:28;;;;;;;2.83;2.50;;;;;;;;;;5115801;28;20199;-80
2022/10/30 07:33:56;;;;;;;5.32;4.57;;;;;;;;;;5115627;28;20285;-81
2022/10/30 07:36:23;;;;;;;9.35;4.50;;;;;;;;;;5115754;28;20231;-81
2022/10/30 07:38:52;;;;;;;7.18;5.82;;;;;;;;;;5115425;28;20259;-81
2022/10/30 07:41:20;;;;;;;4.70;4.10;;;;;;;;;;5115730;28;20286;-81
2022/10/30 07:43:48;;;;;;;7.00;5.15;;;;;;;;;;5115809;28;20724;-83
2022/10/30 07:46:15;;;;;;;3.90;3.60;;;;;;;;;;5115551;28;20287;-84
2022/10/30 07:48:44;;;;;;;4.45;3.28;;;;;;;;;;5114974;28;20352;-83
2022/10/30 07:51:14;;;;;;;4.72;3.15;;;;;;;;;;5115596;28;20290;-84
2022/10/30 07:53:41;;;;;;;5.43;4.47;;;;;;;;;;5114876;28;20275;-84
2022/10/30 07:56:08;;;;;;;3.58;3.25;;;;;;;;;;5114789;28;20238;-83
2022/10/30 07:58:36;;;;;;;4.10;3.70;;;;;;;;;;5114406;28;20215;-83
2022/10/30 08:01:04;;;;;;;3.85;3.47;;;;;;;;;;5114936;28;20199;-84
2022/10/30 08:03:31;;;;;;;5.78;4.15;;;;;;;;;;5114816;28;20646;-82
2022/10/30 08:06:00;;;;;;;8.90;5.07;;;;;;;;;;5114408;28;20205;-82
2022/10/30 08:08:27;;;;;;;10.00;4.93;;;;;;;;;;5114665;28;20315;-83
2022/10/30 08:10:55;;;;;;;6.05;3.78;;;;;;;;;;5114758;28;20252;-82
2022/10/30 08:13:22;;;;;;;5.85;3.63;;;;;;;;;;5115124;28;20290;-82
2022/10/30 08:15:50;;;;;;;2.55;2.35;;;;;;;;;;5115070;28;20291;-82
2022/10/30 08:18:18;;;;;;;4.38;3.85;;;;;;;;;;5114307;28;20215;-82
2022/10/30 08:20:50;;;;;;;3.10;2.60;;;;;;;;;;5114931;28;20199;-82
2022/10/30 08:23:20;;;;;;;6.13;3.30;;;;;;;;;;5115562;28;20213;-83
2022/10/30 08:25:48;;;;;;;4.57;3.45;;;;;;;;;;5118578;28;20204;-82
2022/10/30 08:28:15;;;;;;;9.73;5.47;;;;;;;;;;5118748;28;20334;-83
2022/10/30 08:30:43;;;;;;;3.95;3.60;;;;;;;;;;5119544;28;20278;-82
2022/10/30 08:33:13;;;;;;;4.13;2.88;;;;;;;;;;5117893;28;20295;-82
2022/10/30 08:35:49;;;;;;;4.13;3.33;;;;;;;;;;5117678;28;20222;-82
2022/10/30 08:38:18;;;;;;;3.20;2.80;;;;;;;;;;5118077;28;20225;-82
2022/10/30 08:40:46;;;;;;;3.58;2.30;;;;;;;;;;5117509;28;20204;-82
2022/10/30 08:43:13;;;;;;;3.45;3.15;;;;;;;;;;5117628;28;20298;-82
2022/10/30 08:45:41;;;;;;;4.38;3.85;;;;;;;;;;5117737;28;20200;-82
2022/10/30 08:48:12;;;;;;;4.25;3.85;;;;;;;;;;5138046;22;20322;-84
2022/10/30 08:50:40;;;;;;;4.32;3.70;;;;;;;;;;5120803;28;20355;-84
2022/10/30 08:53:10;;;;;;;4.95;3.30;;;;;;;;;;5119999;28;20223;-85
2022/10/30 08:55:39;;;;;;;3.53;3.20;;;;;;;;;;5092143;28;20196;-85
2022/10/30 08:58:07;;;;;;;3.92;3.45;;;;;;;;;;5099924;28;20259;-85
2022/10/30 09:00:34;;;;;;;3.33;2.70;;;;;;;;;;5100331;28;20685;-85
2022/10/30 09:03:02;;;;;;;2.92;2.70;;;;;;;;;;5099995;28;20220;-85
2022/10/30 09:05:29;;;;;;;2.83;2.53;;;;;;;;;;5099694;28;20200;-86
2022/10/30 09:07:59;;;;;;;3.15;2.80;;;;;;;;;;5098912;28;20205;-85
2022/10/30 09:10:27;;;;;;;3.40;3.10;;;;;;;;;;5098776;28;20559;-84
2022/10/30 09:13:01;;;;;;;5.05;4.30;;;;;;;;;;5097908;28;20283;-86
2022/10/30 09:15:29;;;;;;;3.92;3.63;;;;;;;;;;5098554;28;20223;-85
2022/10/30 09:17:57;;;;;;;6.70;5.40;;;;;;;;;;5098060;28;20198;-85
2022/10/30 09:20:25;;;;;;;14.30;5.20;;;;;;;;;;5097869;28;20197;-85
2022/10/30 09:22:53;;;;;;;7.45;5.03;;;;;;;;;;5097756;28;20670;-84
2022/10/30 09:25:20;;;;;;;4.60;4.18;;;;;;;;;;5097791;28;20200;-86
2022/10/30 09:27:48;;;;;;;3.38;3.08;;;;;;;;;;5097723;28;20707;-86
2022/10/30 09:30:17;;;;;;;5.82;3.50;;;;;;;;;;5097193;28;20224;-85
2022/10/30 09:32:44;;;;;;;3.20;2.90;;;;;;;;;;5096763;28;20273;-87
2022/10/30 09:35:14;;;;;;;4.78;3.95;;;;;;;;;;5098340;28;20291;-85
2022/10/30 09:37:41;;;;;;;5.60;4.80;;;;;;;;;;5096727;28;20196;-85
2022/10/30 09:40:11;;;;;;;5.53;3.60;;;;;;;;;;5096814;28;20231;-86
2022/10/30 09:42:43;;;;;;;4.38;3.80;;;;;;;;;;5096353;28;20244;-87
2022/10/30 09:45:41;;;;;;;4.28;3.03;;;;;;;;;;5097052;28;20214;-86
2022/10/30 09:48:42;;;;;;;4.95;4.50;;;;;;;;;;5079202;28;20251;-86
2022/10/30 09:51:46;;;;;;;4.63;3.25;;;;;;;;;;5096292;28;20283;-85
2022/10/30 09:54:23;;;;;;;5.10;4.10;;;;;;;;;;5095955;28;20594;-86
2022/10/30 09:56:56;;;;;;;5.03;3.17;;;;;;;;;;5095561;28;20621;-86
2022/10/30 09:59:36;;;;;;;6.38;4.20;;;;;;;;;;5096351;28;20198;-87
2022/10/30 10:02:17;;;;;;;4.50;4.07;;;;;;;;;;5096273;28;20616;-86
2022/10/30 10:04:47;;;;;;;4.68;4.22;;;;;;;;;;5096083;28;20200;-86
2022/10/30 10:07:19;;;;;;;6.45;4.43;;;;;;;;;;5095384;28;20196;-86
2022/10/30 10:09:49;;;;;;;4.35;3.45;;;;;;;;;;5095725;28;20231;-86
2022/10/30 10:12:25;;;;;;;3.28;2.97;;;;;;;;;;5095376;28;20204;-86
2022/10/30 10:14:53;;;;;;;4.03;3.25;;;;;;;;;;5095566;28;20202;-86
2022/10/30 10:17:34;;;;;;;5.00;3.95;;;;;;;;;;5094909;28;20295;-85
2022/10/30 10:20:04;;;;;;;4.20;3.28;;;;;;;;;;5094993;28;20200;-87
2022/10/30 10:22:40;;;;;;;2.75;2.45;;;;;;;;;;5094913;28;20223;-87
2022/10/30 10:25:12;;;;;;;3.95;3.55;;;;;;;;;;5094654;28;20685;-87
2022/10/30 10:27:54;;;;;;;5.28;3.17;;;;;;;;;;5094922;28;20287;-86
2022/10/30 10:30:23;;;;;;;4.53;3.40;;;;;;;;;;5095028;28;20224;-87
2022/10/30 10:33:31;;;;;;;4.78;3.40;;;;;;;;;;5094154;28;20311;-86
2022/10/30 10:36:09;;;;;;;6.32;4.30;;;;;;;;;;5094997;28;20266;-87
2022/10/30 10:38:53;;;;;;;6.75;4.03;;;;;;;;;;5093890;28;20207;-87
2022/10/30 10:41:36;;;;;;;7.22;3.97;;;;;;;;;;5094309;28;20283;-87
2022/10/30 10:44:20;;;;;;;5.68;4.50;;;;;;;;;;5094216;28;20323;-86
2022/10/30 10:47:02;;;;;;;5.28;4.78;;;;;;;;;;5093931;28;20200;-87
2022/10/30 10:49:47;;;;;;;3.40;3.10;;;;;;;;;;5094578;28;20347;-88
2022/10/30 10:52:19;;;;;;;4.88;3.70;;;;;;;;;;5094261;28;20200;-87
2022/10/30 10:54:49;;;;;;;5.72;4.35;;;;;;;;;;5092933;28;20572;-88
2022/10/30 10:57:23;;;;;;;5.93;4.05;;;;;;;;;;5093110;28;20196;-87
2022/10/30 10:59:53;;;;;;;6.78;4.05;;;;;;;;;;5093193;28;20201;-87
2022/10/30 11:02:34;;;;;;;4.50;3.30;;;;;;;;;;5093179;28;20315;-88
2022/10/30 11:05:08;;;;;;;6.68;3.60;;;;;;;;;;5092750;28;20192;-85
2022/10/30 11:07:44;;;;;;;4.88;4.15;;;;;;;;;;5093026;28;20206;-87
2022/10/30 11:10:15;;;;;;;7.25;3.72;;;;;;;;;;5093018;28;20223;-88
2022/10/30 11:12:42;;;;;;;4.22;3.70;;;;;;;;;;5093310;28;20232;-88
2022/10/30 11:15:42;;;;;;;8.50;4.22;;;;;;;;;;5092753;28;20198;-88
2022/10/30 11:18:10;;;;;;;5.50;4.45;;;;;;;;;;5092504;28;20226;-87
2022/10/30 11:20:44;;;;;;;3.83;3.40;;;;;;;;;;5092482;28;20763;-88
2022/10/30 11:23:38;;;;;;;5.32;3.33;;;;;;;;;;5092868;28;20224;-87
2022/10/30 11:26:28;;;;;;;6.88;4.22;;;;;;;;;;5092394;28;20277;-87
2022/10/30 11:28:59;;;;;;;9.18;3.70;;;;;;;;;;5092317;28;20334;-87
2022/10/30 11:31:33;;;;;;;4.30;3.90;;;;;;;;;;5092423;28;20277;-89
2022/10/30 11:34:19;;;;;;;4.22;3.17;;;;;;;;;;5092962;28;20216;-88
2022/10/30 11:36:49;;;;;;;4.28;3.03;;;;;;;;;;5092770;28;20546;-85
2022/10/30 11:39:21;;;;;;;3.58;3.05;;;;;;;;;;5093274;28;20214;-87
2022/10/30 11:42:00;;;;;;;6.43;2.95;;;;;;;;;;5092747;28;20589;-87
2022/10/30 11:44:33;;;;;;;3.42;2.63;;;;;;;;;;5092741;28;20627;-87
2022/10/30 11:47:01;;;;;;;4.55;3.05;;;;;;;;;;5092463;28;20303;-86
2022/10/30 11:49:37;;;;;;;3.88;3.03;;;;;;;;;;5092292;28;20592;-86
2022/10/30 11:52:07;;;;;;;5.25;3.80;;;;;;;;;;5092392;28;20239;-88
2022/10/30 11:54:38;;;;;;;5.97;3.40;;;;;;;;;;5091732;28;20206;-87
2022/10/30 11:57:11;;;;;;;3.38;3.08;;;;;;;;;;5092577;28;20204;-87
2022/10/30 11:59:39;;;;;;;3.47;2.92;;;;;;;;;;5095243;28;20196;-87
2022/10/30 12:02:22;;;;;;;2.78;2.53;;;;;;;;;;5096658;28;20668;-87
2022/10/30 12:04:51;;;;;;;7.75;3.40;;;;;;;;;;5096494;28;20574;-87
2022/10/30 12:07:28;;;;;;;4.30;3.00;;;;;;;;;;5096395;28;20690;-86
2022/10/30 12:09:58;;;;;;;3.90;2.83;;;;;;;;;;5096479;28;20220;-86
2022/10/30 12:12:30;;;;;;;5.25;3.13;;;;;;;;;;5096491;28;20307;-85
2022/10/30 12:15:10;;;;;;;2.80;2.60;;;;;;;;;;5096815;28;20600;-86
2022/10/30 12:17:39;;;;;;;7.88;4.20;;;;;;;;;;5096009;28;20752;-88
2022/10/30 12:20:13;;;;;;;6.20;3.45;;;;;;;;;;5095654;28;20207;-87
2022/10/30 12:22:42;;;;;;;6.72;3.30;;;;;;;;;;5095974;28;20228;-87
2022/10/30 12:25:23;;;;;;;5.78;3.40;;;;;;;;;;5096038;28;20694;-86
2022/10/30 12:27:51;;;;;;;3.15;2.67;;;;;;;;;;5096502;28;20211;-87
2022/10/30 12:30:20;;;;;;;4.57;3.25;;;;;;;;;;5095886;28;20230;-87
2022/10/30 12:32:52;;;;;;;3.50;2.78;;;;;;;;;;5095436;28;20226;-86
2022/10/30 12:35:36;;;;;;;4.97;3.08;;;;;;;;;;5096039;28;20203;-87
2022/10/30 12:38:10;;;;;;;4.55;2.58;;;;;;;;;;5096494;28;20204;-86
2022/10/30 12:40:44;;;;;;;5.20;2.75;;;;;;;;;;5095812;28;20231;-87
2022/10/30 12:43:19;;;;;;;5.03;2.92;;;;;;;;;;5098585;28;20228;-86
2022/10/30 12:45:49;;;;;;;6.22;2.92;;;;;;;;;;5108952;28;20204;-87
2022/10/30 12:48:25;;;;;;;3.45;2.45;;;;;;;;;;5088350;28;20692;-86
2022/10/30 12:51:06;;;;;;;3.85;3.47;;;;;;;;;;5083751;28;20696;-85
2022/10/30 12:53:40;;;;;;;2.95;2.67;;;;;;;;;;5078824;28;20715;-86
2022/10/30 12:56:10;;;;;;;3.90;2.78;;;;;;;;;;5077084;28;20200;-86
2022/10/30 12:58:44;;;;;;;7.75;3.20;;;;;;;;;;5075265;28;20211;-86
2022/10/30 13:01:22;;;;;;;3.78;2.50;;;;;;;;;;5075516;28;20768;-86
2022/10/30 13:03:55;;;;;;;6.00;2.72;;;;;;;;;;5075952;28;20224;-86
2022/10/30 13:06:27;;;;;;;4.47;3.20;;;;;;;;;;5078263;28;20300;-85
2022/10/30 13:09:08;;;;;;;5.68;2.75;;;;;;;;;;5077292;28;20288;-86
2022/10/30 13:11:42;;;;;;;3.60;2.88;;;;;;;;;;5078957;28;20222;-86
2022/10/30 13:14:19;;;;;;;4.20;3.15;;;;;;;;;;5077647;28;20304;-85
2022/10/30 13:16:46;;;;;;;4.00;3.15;;;;;;;;;;5078738;28;20207;-86
2022/10/30 13:19:14;;;;;;;4.57;2.80;;;;;;;;;;5076613;28;20228;-85
2022/10/30 13:21:48;;;;;;;5.60;2.70;;;;;;;;;;5076762;28;20296;-85
2022/10/30 13:24:23;;;;;;;3.88;2.78;;;;;;;;;;5078244;28;20220;-86
2022/10/30 13:26:55;;;;;;;3.35;3.03;;;;;;;;;;5079142;28;20199;-85
2022/10/30 13:29:28;;;;;;;2.90;2.38;;;;;;;;;;5077839;28;20672;-86
2022/10/30 13:32:24;;;;;;;3.38;3.08;;;;;;;;;;5077311;28;20228;-86
2022/10/30 13:34:59;;;;;;;2.75;2.35;;;;;;;;;;5077241;28;20211;-85
2022/10/30 13:37:31;;;;;;;3.38;2.60;;;;;;;;;;5078195;28;20199;-86
2022/10/30 13:40:13;;;;;;;5.35;2.85;;;;;;;;;;5079794;28;20200;-86
2022/10/30 13:42:55;;;;;;;4.88;3.50;;;;;;;;;;5076690;28;20227;-86
2022/10/30 13:45:42;;;;;;;3.40;3.10;;;;;;;;;;5078432;28;20221;-86
2022/10/30 13:48:16;;;;;;;2.92;2.70;;;;;;;;;;5091791;28;20218;-86
2022/10/30 13:51:04;;;;;;;4.15;2.80;;;;;;;;;;5099620;28;20215;-86
2022/10/30 13:53:35;;;;;;;4.47;2.55;;;;;;;;;;5098109;28;20295;-86
2022/10/30 13:56:04;;;;;;;2.92;2.53;;;;;;;;;;5096512;28;20292;-86
2022/10/30 13:58:41;;;;;;;6.22;2.85;;;;;;;;;;5097209;28;20655;-87
2022/10/30 14:01:16;;;;;;;2.50;2.28;;;;;;;;;;5096329;28;20291;-85
2022/10/30 14:03:51;;;;;;;6.90;2.78;;;;;;;;;;5098807;28;20235;-86
2022/10/30 14:06:32;;;;;;;5.05;3.33;;;;;;;;;;5096379;28;20195;-85
2022/10/30 14:09:08;;;;;;;3.70;2.67;;;;;;;;;;5095794;28;20273;-85
2022/10/30 14:11:36;;;;;;;3.20;2.50;;;;;;;;;;5097360;28;20220;-85
2022/10/30 14:14:28;;;;;;;7.13;2.85;;;;;;;;;;5095030;28;20309;-86
2022/10/30 14:17:15;;;;;;;6.68;2.80;;;;;;;;;;5096022;28;20262;-85
2022/10/30 14:20:25;;;;;;;3.10;2.85;;;;;;;;;;5095818;28;20196;-86
2022/10/30 14:23:12;;;;;;;5.50;3.25;;;;;;;;;;5094707;28;20222;-85
2022/10/30 14:25:39;;;;;;;3.38;2.50;;;;;;;;;;5077009;28;20204;-85
2022/10/30 14:28:20;;;;;;;4.25;3.17;;;;;;;;;;5074658;28;20215;-85
2022/10/30 14:30:47;;;;;;;4.38;2.38;;;;;;;;;;5075969;28;20268;-85
2022/10/30 14:33:42;;;;;;;5.55;2.45;;;;;;;;;;5075094;28;20224;-85
2022/10/30 14:36:24;;;;;;;6.38;2.78;;;;;;;;;;5076355;28;20574;-85
2022/10/30 14:39:24;;;;;;;5.03;2.00;;;;;;;;;;5076904;28;20208;-85
2022/10/30 14:42:02;;;;;;;2.97;1.88;;;;;;;;;;5075979;28;20260;-85
2022/10/30 14:44:51;;;;;;;3.45;2.90;;;;;;;;;;5076371;28;20226;-85
2022/10/30 14:47:53;;;;;;;4.43;3.15;;;;;;;;;;5078045;28;20219;-85
2022/10/30 14:50:42;;;;;;;2.65;1.90;;;;;;;;;;5075785;28;20208;-85
2022/10/30 14:53:24;;;;;;;3.65;2.20;;;;;;;;;;5076855;28;20618;-85
2022/10/30 14:56:01;;;;;;;3.78;1.75;;;;;;;;;;5097393;28;20200;-85
2022/10/30 14:58:32;;;;;;;4.30;2.20;;;;;;;;;;5096312;28;20207;-85
2022/10/30 15:01:28;;;;;;;2.15;2.00;;;;;;;;;;5097175;28;20196;-85
2022/10/30 15:04:07;;;;;;;1.70;1.60;;;;;;;;;;5097012;28;20601;-85
2022/10/30 15:06:43;;;;;;;4.75;2.22;;;;;;;;;;5097425;28;20321;-85
2022/10/30 15:09:28;;;;;;;3.95;3.15;;;;;;;;;;5097392;28;20203;-85
2022/10/30 15:12:34;;;;;;;2.47;1.85;;;;;;;;;;5097774;28;20215;-85
2022/10/30 15:15:03;;;;;;;2.47;2.20;;;;;;;;;;5097382;28;20196;-85